Time;durP1;ratioP1;P1;durP2;ratioP2;P2;SDS_P1;SDS_P2;PMS_P1;PMS_P2;Temp;Humidity;BMP_temperature;BMP_pressure;BME280_temperature;BME280_humidity;BME280_pressure;Samples;Min_cycle;Max_cycle;Signal;HPM_P1;HPM_P2
2024/01/03 00:00:25;;;;;;;11.15;7.32;;;;;;;1.70;77.53;99057.69;4835052;29;20040;-92
2024/01/03 00:02:51;;;;;;;16.42;7.60;;;;;;;1.68;77.30;99041.19;4866449;29;20045;-91
2024/01/03 00:05:22;;;;;;;11.90;7.50;;;;;;;1.80;77.52;99033.28;4834821;29;20044;-92
2024/01/03 00:07:47;;;;;;;13.20;7.57;;;;;;;1.74;77.69;99035.00;4864801;29;20037;-92
2024/01/03 00:10:37;;;;;;;15.45;8.30;;;;;;;1.88;77.88;99045.47;4833458;29;20538;-92
2024/01/03 00:13:04;;;;;;;11.73;7.75;;;;;;;2.01;77.75;99045.31;4864203;29;20049;-91
2024/01/03 00:16:12;;;;;;;12.82;7.95;;;;;;;2.09;77.13;99054.84;4834055;29;20083;-91
2024/01/03 00:18:39;;;;;;;12.43;7.70;;;;;;;2.03;77.36;99048.56;4855396;29;20041;-91
2024/01/03 00:21:09;;;;;;;15.45;8.05;;;;;;;2.27;77.11;99064.69;4833710;29;20511;-92
2024/01/03 00:23:39;;;;;;;13.13;7.90;;;;;;;2.23;77.06;99046.50;4833898;29;20033;-91
2024/01/03 00:26:08;;;;;;;13.70;7.55;;;;;;;2.10;76.94;99044.03;4834633;29;20073;-92
2024/01/03 00:28:33;;;;;;;13.63;7.80;;;;;;;1.95;77.06;99030.28;4864852;29;20036;-91
2024/01/03 00:30:59;;;;;;;12.05;7.80;;;;;;;2.19;77.31;99050.66;4833450;29;20052;-90
2024/01/03 00:33:24;;;;;;;12.93;7.97;;;;;;;2.27;76.69;99054.06;4834296;29;20037;-92
2024/01/03 00:35:51;;;;;;;13.40;8.27;;;;;;;2.38;76.28;99056.75;4834454;29;20491;-92
2024/01/03 00:38:17;;;;;;;11.77;8.05;;;;;;;2.33;76.96;99043.34;4833676;29;20060;-91
2024/01/03 00:40:42;;;;;;;14.70;8.30;;;;;;;2.53;76.38;99055.56;4834185;29;20041;-91
2024/01/03 00:43:08;;;;;;;13.93;8.07;;;;;;;2.35;76.60;99030.66;4864151;29;20064;-92
2024/01/03 00:45:34;;;;;;;11.27;6.10;;;;;;;2.34;77.08;99044.16;4834161;29;20044;-91
2024/01/03 00:47:59;;;;;;;10.02;6.25;;;;;;;2.15;76.25;99038.03;4834712;29;20052;-92
2024/01/03 00:50:25;;;;;;;14.82;6.78;;;;;;;2.08;76.64;99039.97;4837028;29;20041;-92
2024/01/03 00:52:51;;;;;;;17.83;7.43;;;;;;;2.04;77.02;99022.84;4837792;29;20045;-92
2024/01/03 00:55:16;;;;;;;12.13;7.70;;;;;;;2.13;76.40;99034.78;4837149;29;20036;-92
2024/01/03 00:57:42;;;;;;;16.15;7.57;;;;;;;2.11;76.54;99050.13;4837090;29;20044;-91
2024/01/03 01:00:08;;;;;;;18.70;8.73;;;;;;;2.11;77.37;99052.78;4836387;29;20048;-91
2024/01/03 01:02:33;;;;;;;11.30;6.82;;;;;;;2.20;76.15;99043.47;4867179;29;20515;-91
2024/01/03 01:04:59;;;;;;;15.13;6.90;;;;;;;2.28;76.10;99035.22;4836076;29;20081;-91
2024/01/03 01:07:25;;;;;;;15.63;7.07;;;;;;;2.28;76.40;99045.03;4835652;29;20077;-91
2024/01/03 01:09:50;;;;;;;14.50;7.18;;;;;;;2.06;76.53;99021.59;4836467;29;20048;-91
2024/01/03 01:12:16;;;;;;;12.50;7.53;;;;;;;2.16;77.28;99026.41;4836226;29;20047;-92
2024/01/03 01:14:41;;;;;;;13.55;8.32;;;;;;;2.05;76.87;99017.31;4836298;29;20471;-92
2024/01/03 01:17:07;;;;;;;11.23;6.88;;;;;;;2.10;76.34;99003.38;4836005;29;20041;-92
2024/01/03 01:19:32;;;;;;;16.48;7.18;;;;;;;2.34;76.35;99020.22;4836372;29;20052;-91
2024/01/03 01:21:58;;;;;;;12.75;6.85;;;;;;;2.15;76.66;99006.16;4836077;29;20162;-91
2024/01/03 01:24:23;;;;;;;10.43;5.78;;;;;;;2.04;76.94;98994.44;4835836;29;20040;-92
2024/01/03 01:26:49;;;;;;;9.35;5.78;;;;;;;2.17;76.41;99020.84;4835734;29;20049;-91
2024/01/03 01:29:14;;;;;;;16.17;7.43;;;;;;;2.15;76.57;99006.97;4835967;29;20109;-92
2024/01/03 01:31:40;;;;;;;10.70;6.50;;;;;;;2.13;76.75;99011.69;4835753;29;20056;-92
2024/01/03 01:34:06;;;;;;;13.80;5.95;;;;;;;2.13;76.59;99026.81;4835511;29;20089;-91
2024/01/03 01:36:31;;;;;;;10.20;6.30;;;;;;;2.17;76.46;99030.66;4836682;29;20044;-91
2024/01/03 01:38:57;;;;;;;10.57;6.05;;;;;;;1.89;76.43;98994.00;4836718;29;20069;-91
2024/01/03 01:41:22;;;;;;;8.35;5.68;;;;;;;2.07;76.48;99023.19;4836473;29;20037;-92
2024/01/03 01:43:48;;;;;;;11.80;5.97;;;;;;;1.94;76.71;99020.69;4836194;29;20037;-91
2024/01/03 01:46:13;;;;;;;9.70;6.15;;;;;;;1.85;76.59;99000.78;4866188;29;20040;-92
2024/01/03 01:48:39;;;;;;;8.77;5.50;;;;;;;1.91;76.27;99000.72;4835717;29;20056;-92
2024/01/03 01:51:05;;;;;;;9.02;6.00;;;;;;;1.95;76.45;99017.84;4836196;29;20073;-91
2024/01/03 01:53:30;;;;;;;12.80;6.35;;;;;;;1.90;77.01;99011.56;4835905;29;20487;-92
2024/01/03 01:55:56;;;;;;;13.15;7.38;;;;;;;1.88;77.24;99008.31;4836216;29;20067;-92
2024/01/03 01:58:21;;;;;;;12.90;7.32;;;;;;;1.93;76.82;99017.25;4835373;29;20043;-91
2024/01/03 02:00:48;;;;;;;10.48;7.07;;;;;;;1.68;76.76;98988.09;4836893;29;20535;-92
2024/01/03 02:03:13;;;;;;;13.43;8.15;;;;;;;1.76;76.64;99010.88;4837359;29;20040;-91
2024/01/03 02:05:39;;;;;;;12.75;7.85;;;;;;;1.76;76.83;99000.25;4836331;29;20041;-91
2024/01/03 02:08:33;;;;;;;14.20;8.27;;;;;;;2.07;76.43;99023.19;4836383;29;20041;-92
2024/01/03 02:10:58;;;;;;;13.93;7.63;;;;;;;2.16;75.89;99013.91;4854594;29;20072;-92
2024/01/03 02:13:24;;;;;;;11.90;7.18;;;;;;;2.17;76.35;98998.78;4853617;29;20045;-91
2024/01/03 02:15:49;;;;;;;13.27;8.30;;;;;;;2.08;76.43;99000.13;4835352;29;20081;-91
2024/01/03 02:18:15;;;;;;;14.25;8.63;;;;;;;2.14;76.48;99010.69;4833203;29;20048;-92
2024/01/03 02:20:40;;;;;;;17.88;8.93;;;;;;;2.07;76.22;98998.50;4838995;29;20055;-91
2024/01/03 02:23:06;;;;;;;15.82;9.18;;;;;;;2.17;77.03;99004.91;4835512;29;20041;-92
2024/01/03 02:25:31;;;;;;;15.27;9.07;;;;;;;1.90;76.74;98992.97;4834974;29;20043;-91
2024/01/03 02:28:00;;;;;;;16.30;9.05;;;;;;;1.84;76.62;98969.97;4835192;29;20037;-92
2024/01/03 02:30:25;;;;;;;16.95;9.35;;;;;;;1.96;75.91;98989.44;4835786;29;20047;-91
2024/01/03 02:32:51;;;;;;;13.80;9.48;;;;;;;1.95;76.33;98978.00;4836182;29;20041;-91
2024/01/03 02:35:17;;;;;;;14.75;9.38;;;;;;;2.06;76.29;98988.94;4850102;29;20530;-91
2024/01/03 02:37:42;;;;;;;15.27;9.43;;;;;;;1.95;76.35;98964.75;4835180;29;20570;-91
2024/01/03 02:40:08;;;;;;;16.67;10.43;;;;;;;2.05;75.82;98968.69;4834562;29;20518;-91
2024/01/03 02:42:33;;;;;;;15.82;9.48;;;;;;;2.15;76.61;98985.72;4849869;29;20472;-91
2024/01/03 02:44:59;;;;;;;14.68;8.82;;;;;;;2.07;76.70;98982.56;4835305;29;20530;-91
2024/01/03 02:47:25;;;;;;;15.65;9.02;;;;;;;2.03;76.41;98955.63;4835195;29;20044;-90
2024/01/03 02:49:54;;;;;;;19.13;9.95;;;;;;;2.11;76.37;98965.16;4834815;29;20044;-91
2024/01/03 02:52:19;;;;;;;20.25;10.75;;;;;;;2.15;76.26;98972.44;4835396;29;20128;-91
2024/01/03 02:54:45;;;;;;;15.77;10.18;;;;;;;2.11;75.92;98973.13;4834890;29;20037;-91
2024/01/03 02:57:12;;;;;;;17.33;10.70;;;;;;;2.20;76.12;98966.44;4834914;29;20419;-90
2024/01/03 02:59:38;;;;;;;17.98;10.23;;;;;;;2.23;76.70;98969.47;4835165;29;20045;-92
2024/01/03 03:02:03;;;;;;;20.25;9.82;;;;;;;2.17;75.80;98957.09;4835580;29;20041;-91
2024/01/03 03:04:30;;;;;;;15.57;10.32;;;;;;;2.37;75.92;98969.31;4836159;29;20493;-91
2024/01/03 03:06:56;;;;;;;16.67;11.38;;;;;;;2.12;75.85;98953.50;4849472;29;20036;-91
2024/01/03 03:09:21;;;;;;;21.27;11.75;;;;;;;2.06;75.79;98947.25;4834673;29;20045;-90
2024/01/03 03:11:49;;;;;;;18.52;12.10;;;;;;;2.20;76.58;98969.94;4835725;29;20072;-92
2024/01/03 03:14:15;;;;;;;22.42;11.52;;;;;;;2.19;76.01;98952.38;4863599;29;20041;-91
2024/01/03 03:16:42;;;;;;;21.75;12.18;;;;;;;2.15;76.13;98943.22;4853935;29;20065;-92
2024/01/03 03:19:07;;;;;;;23.98;13.70;;;;;;;2.17;76.34;98940.34;4856067;29;20507;-90
2024/01/03 03:21:33;;;;;;;19.85;12.85;;;;;;;2.33;75.35;98944.25;4816985;29;20049;-91
2024/01/03 03:23:59;;;;;;;26.60;11.98;;;;;;;2.45;75.51;98955.72;4817078;29;20109;-91
2024/01/03 03:26:24;;;;;;;19.40;11.95;;;;;;;2.48;75.45;98952.59;4817050;29;20042;-91
2024/01/03 03:28:50;;;;;;;23.88;13.10;;;;;;;2.48;75.88;98963.25;4816163;29;20045;-90
2024/01/03 03:31:16;;;;;;;23.50;12.77;;;;;;;2.44;75.83;98940.81;4816034;29;20124;-90
2024/01/03 03:33:41;;;;;;;22.38;13.52;;;;;;;2.47;75.42;98942.19;4816545;29;20468;-91
2024/01/03 03:36:21;;;;;;;22.60;12.95;;;;;;;2.61;75.14;98959.56;4817720;29;20046;-90
2024/01/03 03:38:47;;;;;;;24.40;12.40;;;;;;;2.56;75.50;98970.88;4832108;29;20042;-90
2024/01/03 03:41:12;;;;;;;24.25;14.45;;;;;;;2.53;75.60;98958.06;4831418;29;20040;-91
2024/01/03 03:43:39;;;;;;;23.83;12.93;;;;;;;2.49;75.45;98951.59;4816177;29;20046;-91
2024/01/03 03:46:08;;;;;;;24.80;14.30;;;;;;;2.53;75.58;98954.56;4815518;29;20045;-93
2024/01/03 03:48:33;;;;;;;28.90;13.98;;;;;;;2.55;75.71;98957.81;4815932;29;20041;-93
2024/01/03 03:51:02;;;;;;;32.15;14.32;;;;;;;2.48;75.44;98946.50;4840255;29;20051;-90
2024/01/03 03:53:28;;;;;;;24.65;13.25;;;;;;;2.50;75.65;98950.53;4833582;29;20124;-92
2024/01/03 03:55:53;;;;;;;25.33;13.80;;;;;;;2.53;75.56;98947.44;4833641;29;20045;-91
2024/01/03 03:58:19;;;;;;;31.00;14.38;;;;;;;2.49;75.47;98932.97;4834437;29;20140;-90
2024/01/03 04:00:44;;;;;;;28.55;13.73;;;;;;;2.50;76.01;98942.56;4830943;29;20037;-91
2024/01/03 04:03:10;;;;;;;20.38;12.68;;;;;;;2.54;75.79;98934.97;4815675;29;20037;-91
2024/01/03 04:05:36;;;;;;;27.02;13.93;;;;;;;2.50;75.62;98936.44;4815897;29;20494;-91
2024/01/03 04:08:11;;;;;;;28.50;13.27;;;;;;;2.59;75.57;98956.34;4815443;29;20046;-90
2024/01/03 04:10:36;;;;;;;24.13;12.65;;;;;;;2.54;75.77;98946.38;4847985;29;20049;-92
2024/01/03 04:13:02;;;;;;;30.20;13.75;;;;;;;2.43;76.09;98929.38;4816264;29;20040;-92
2024/01/03 04:15:28;;;;;;;32.42;12.90;;;;;;;2.62;76.10;98934.63;4815802;29;20560;-94
2024/01/03 04:17:54;;;;;;;28.77;12.55;;;;;;;2.64;75.37;98943.19;4816144;29;20050;-93
2024/01/03 04:20:20;;;;;;;24.90;13.55;;;;;;;2.67;75.27;98942.72;4817877;29;20419;-93
2024/01/03 04:22:46;;;;;;;26.50;14.00;;;;;;;2.69;75.21;98939.84;4853302;29;20056;-93
2024/01/03 04:25:12;;;;;;;29.13;12.85;;;;;;;2.55;75.53;98934.75;4853979;29;20492;-92
2024/01/03 04:27:37;;;;;;;26.42;13.32;;;;;;;2.57;75.17;98927.34;4843634;29;20040;-93
2024/01/03 04:30:04;;;;;;;28.27;13.50;;;;;;;2.53;75.68;98920.03;4838222;29;20041;-91
2024/01/03 04:32:30;;;;;;;22.33;12.70;;;;;;;2.56;75.47;98917.75;4833926;29;20045;-90
2024/01/03 04:34:59;;;;;;;28.60;13.68;;;;;;;2.70;75.59;98918.34;4818826;29;20038;-90
2024/01/03 04:37:24;;;;;;;26.63;14.70;;;;;;;2.56;75.56;98896.47;4843586;29;20041;-91
2024/01/03 04:39:50;;;;;;;28.55;13.65;;;;;;;2.50;75.82;98899.25;4839782;29;20033;-92
2024/01/03 04:42:16;;;;;;;28.15;14.30;;;;;;;2.55;75.22;98902.00;4845963;29;20068;-90
2024/01/03 04:44:44;;;;;;;30.17;15.88;;;;;;;2.56;75.55;98903.66;4840105;29;20044;-91
2024/01/03 04:47:10;;;;;;;30.38;14.88;;;;;;;2.59;75.41;98913.81;4838643;29;20072;-94
2024/01/03 04:49:36;;;;;;;23.45;14.45;;;;;;;2.64;75.57;98908.63;4838801;29;20041;-94
2024/01/03 04:52:11;;;;;;;26.83;14.50;;;;;;;2.61;75.82;98909.06;4839238;29;20129;-93
2024/01/03 04:54:38;;;;;;;21.80;13.98;;;;;;;2.60;75.36;98915.44;4841288;29;20053;-93
2024/01/03 04:57:04;;;;;;;33.13;15.20;;;;;;;2.80;75.95;98934.56;4870438;29;20048;-95
2024/01/03 04:59:29;;;;;;;27.17;15.20;;;;;;;2.82;75.84;98926.34;4838772;29;20132;-93
2024/01/03 05:01:55;;;;;;;31.85;15.45;;;;;;;2.77;75.84;98915.59;4838913;29;20041;-94
2024/01/03 05:04:20;;;;;;;31.88;16.33;;;;;;;2.79;75.47;98906.34;4836615;29;20037;-92
2024/01/03 05:06:46;;;;;;;37.10;15.27;;;;;;;2.81;75.06;98908.78;4838123;29;20037;-93
2024/01/03 05:09:12;;;;;;;29.90;14.82;;;;;;;2.83;75.83;98915.47;4837291;29;20037;-91
2024/01/03 05:11:37;;;;;;;44.80;14.68;;;;;;;2.86;75.43;98913.41;4851984;29;20088;-91
2024/01/03 05:14:03;;;;;;;28.10;15.77;;;;;;;2.90;75.01;98923.34;4837272;29;20033;-93
2024/01/03 05:16:28;;;;;;;34.85;15.02;;;;;;;2.96;75.96;98925.09;4838033;29;20057;-92
2024/01/03 05:18:54;;;;;;;26.45;14.73;;;;;;;2.81;75.02;98911.44;4837772;29;20041;-95
2024/01/03 05:21:19;;;;;;;32.33;16.02;;;;;;;2.97;75.35;98937.34;4840542;29;20105;-94
2024/01/03 05:23:46;;;;;;;32.85;18.00;;;;;;;2.81;75.15;98922.06;4839541;29;20496;-94
2024/01/03 05:26:13;;;;;;;32.40;15.00;;;;;;;2.93;74.82;98925.56;4855797;29;20051;-94
2024/01/03 05:28:39;;;;;;;29.48;16.20;;;;;;;2.90;74.65;98925.19;4839289;29;20044;-93
2024/01/03 05:31:04;;;;;;;32.92;19.63;;;;;;;2.76;75.09;98919.28;4856982;29;20047;-92
2024/01/03 05:33:30;;;;;;;29.92;15.25;;;;;;;2.96;74.50;98935.72;4838870;29;20033;-94
2024/01/03 05:35:56;;;;;;;34.65;15.05;;;;;;;2.83;74.80;98912.03;4840375;29;20059;-93
2024/01/03 05:38:21;;;;;;;31.00;15.82;;;;;;;2.87;74.40;98915.84;4839370;29;20078;-95
2024/01/03 05:40:50;;;;;;;33.42;15.95;;;;;;;2.87;74.49;98920.34;4839467;29;20103;-93
2024/01/03 05:43:16;;;;;;;31.45;15.30;;;;;;;2.86;74.69;98908.88;4839114;29;20036;-93
2024/01/03 05:45:44;;;;;;;28.38;17.52;;;;;;;2.91;75.09;98916.19;4845758;29;20045;-92
2024/01/03 05:48:10;;;;;;;27.42;16.17;;;;;;;3.02;74.84;98918.84;4835409;29;20105;-94
2024/01/03 05:50:36;;;;;;;31.90;17.88;;;;;;;3.23;74.22;98914.00;4834908;29;20037;-92
2024/01/03 05:53:04;;;;;;;38.05;17.25;;;;;;;3.29;73.83;98933.56;4835854;29;20106;-93
2024/01/03 05:55:32;;;;;;;33.65;15.23;;;;;;;3.20;73.81;98922.47;4852240;29;20037;-93
2024/01/03 05:57:57;;;;;;;26.83;15.20;;;;;;;3.27;74.02;98922.34;4830029;29;20045;-93
2024/01/03 06:00:30;;;;;;;28.73;15.52;;;;;;;3.32;73.95;98927.75;4820122;29;20052;-95
2024/01/03 06:02:56;;;;;;;30.38;15.55;;;;;;;3.26;73.63;98924.19;4836624;29;20076;-92
2024/01/03 06:05:22;;;;;;;32.90;15.93;;;;;;;3.28;73.69;98908.81;4835471;29;20144;-94
2024/01/03 06:07:47;;;;;;;37.03;16.90;;;;;;;3.35;73.70;98914.00;4823659;29;20066;-93
2024/01/03 06:10:13;;;;;;;30.65;17.70;;;;;;;3.27;74.25;98912.50;4836876;29;20042;-93
2024/01/03 06:12:41;;;;;;;33.17;16.67;;;;;;;3.45;74.22;98938.19;4820210;29;20033;-92
2024/01/03 06:15:07;;;;;;;28.70;16.02;;;;;;;3.52;74.01;98933.53;4836381;29;20500;-94
2024/01/03 06:17:44;;;;;;;26.92;15.43;;;;;;;3.50;74.30;98930.28;4821687;29;20088;-93
2024/01/03 06:20:10;;;;;;;29.55;15.23;;;;;;;3.39;74.63;98917.81;4853248;29;20136;-93
2024/01/03 06:22:41;;;;;;;30.05;14.48;;;;;;;3.53;73.91;98931.66;4872544;29;20056;-92
2024/01/03 06:25:08;;;;;;;40.15;25.55;;;;;;;3.26;75.15;98921.53;4863428;29;20036;-95
2024/01/03 06:27:47;;;;;;;25.67;16.60;;;;;;;3.44;74.99;98936.53;4880231;29;20039;-94
2024/01/03 06:30:26;;;;;;;28.30;15.10;;;;;;;3.52;74.29;98936.19;4884017;29;20044;-96
2024/01/03 06:40:32;;;;;;;26.10;13.95;;;;;;;3.35;74.96;98909.47;4887009;29;20057;-93
2024/01/03 06:43:06;;;;;;;26.70;13.80;;;;;;;3.27;75.01;98915.16;4872027;29;20033;-94
2024/01/03 06:48:25;;;;;;;26.48;13.77;;;;;;;3.89;73.55;98922.59;4877802;29;20048;-94
2024/01/03 06:57:54;;;;;;;33.53;15.25;;;;;;;4.04;72.40;98938.88;4899216;29;20169;-96
2024/01/03 07:03:03;;;;;;;30.77;15.32;;;;;;;3.89;73.05;98929.78;5080504;23;20065;-94
2024/01/03 07:05:30;;;;;;;31.70;16.70;;;;;;;3.82;72.32;98906.75;4819881;29;20044;-94
2024/01/03 07:11:24;;;;;;;26.92;17.27;;;;;;;4.10;71.52;98913.13;4845906;29;20064;-95
2024/01/03 07:13:49;;;;;;;29.17;16.45;;;;;;;3.85;72.80;98913.44;4842913;29;20068;-93
2024/01/03 07:16:15;;;;;;;32.97;17.45;;;;;;;3.98;72.69;98910.50;4824332;29;20045;-95
2024/01/03 07:18:42;;;;;;;37.03;17.30;;;;;;;3.96;71.89;98880.63;4823720;29;20129;-95
2024/01/03 07:25:24;;;;;;;46.30;19.13;;;;;;;3.70;73.15;98889.19;4876274;29;20129;-94
2024/01/03 07:55:57;;;;;;;53.55;27.05;;;;;;;4.70;72.47;98887.00;4800435;29;20041;-95
2024/01/03 07:58:22;;;;;;;57.35;24.52;;;;;;;4.77;71.56;98887.66;4788756;29;20033;-94
2024/01/03 08:01:45;;;;;;;51.92;26.83;;;;;;;4.54;72.46;98884.06;4770166;30;20156;-96
2024/01/03 08:07:42;;;;;;;47.67;23.42;;;;;;;5.10;71.45;98889.47;5068551;23;20100;-96
2024/01/03 08:10:14;;;;;;;42.42;24.55;;;;;;;5.12;71.79;98898.06;4864928;29;20049;-95
2024/01/03 08:12:47;;;;;;;47.75;25.63;;;;;;;5.29;71.19;98886.53;4842099;29;20044;-94
2024/01/03 08:15:49;;;;;;;;;;;;;;;;;;;;;
2024/01/03 08:18:44;;;;;;;;;;;;;;;;;;;;;
2024/01/03 08:21:15;;;;;;;53.22;25.58;;;;;;;5.49;70.20;98867.34;4863230;29;20111;-94
2024/01/03 08:25:05;;;;;;;;;;;;;;;;;;;;;
2024/01/03 08:31:08;;;;;;;;;;;;;;;;;;;;;
2024/01/03 08:41:29;;;;;;;40.95;25.73;;;;;;;6.16;68.16;98848.34;4884973;29;20053;-96
2024/01/03 08:44:05;;;;;;;44.15;25.40;;;;;;;6.32;67.75;98848.50;4856378;29;20127;-94
2024/01/03 08:46:32;;;;;;;44.30;25.63;;;;;;;6.47;67.38;98840.63;4856312;29;20495;-96
2024/01/03 08:48:58;;;;;;;57.90;28.50;;;;;;;6.65;66.94;98832.19;4859620;29;20041;-96
2024/01/03 08:57:34;;;;;;;;;;;;;;;;;;;;;
2024/01/03 09:00:19;;;;;;;45.28;27.55;;;;;;;7.11;66.56;98817.53;4959827;23;20096;-95
2024/01/03 09:03:01;;;;;;;46.63;27.10;;;;;;;7.17;66.11;98809.25;4850204;29;20033;-96
2024/01/03 09:05:30;;;;;;;70.18;40.03;;;;;;;7.39;65.53;98822.50;4884640;29;20146;-95
2024/01/03 09:08:14;;;;;;;69.55;41.00;;;;;;;7.51;65.90;98816.09;4865013;29;20028;-96
2024/01/03 09:18:07;;;;;;;54.03;28.23;;;;;;;7.58;65.99;98798.72;4823753;29;20046;-95
2024/01/03 09:20:38;;;;;;;50.20;29.42;;;;;;;7.58;66.32;98812.13;4826316;29;20102;-96
2024/01/03 09:23:11;;;;;;;55.37;29.83;;;;;;;7.62;66.27;98810.53;4822575;29;20054;-95
2024/01/03 09:25:38;;;;;;;60.30;34.10;;;;;;;7.37;67.18;98789.00;4830588;29;20165;-95
2024/01/03 09:28:04;;;;;;;77.63;41.80;;;;;;;7.52;66.84;98773.00;4855417;29;20082;-91
2024/01/03 09:30:29;;;;;;;65.20;31.20;;;;;;;7.77;66.10;98806.28;4838102;29;20487;-90
2024/01/03 09:32:58;;;;;;;64.05;34.80;;;;;;;7.70;65.79;98763.66;4838633;29;20059;-92
2024/01/03 09:35:30;;;;;;;77.38;36.03;;;;;;;7.84;65.67;98769.31;4837493;29;20129;-90
2024/01/03 09:37:55;;;;;;;70.57;34.65;;;;;;;7.93;65.22;98775.78;4844937;29;20040;-91
2024/01/03 09:40:21;;;;;;;62.28;33.03;;;;;;;8.18;64.96;98798.34;4844472;29;20123;-91
2024/01/03 09:43:42;;;;;;;;;;;;;;;;;;;;;
2024/01/03 09:46:14;;;;;;;62.63;34.17;;;;;;;8.12;65.43;98777.94;4897121;29;20123;-91
2024/01/03 09:48:47;;;;;;;72.57;33.88;;;;;;;8.13;65.52;98782.22;4857406;29;20041;-94
2024/01/03 09:51:54;;;;;;;69.05;37.60;;;;;;;8.27;65.25;98786.78;4876264;29;20092;-96
2024/01/03 10:01:58;;;;;;;61.33;32.05;;;;;;;8.46;64.77;98775.56;4780386;29;20086;-91
2024/01/03 10:04:29;;;;;;;54.38;31.00;;;;;;;8.53;65.08;98784.16;4745011;30;20047;-95
2024/01/03 10:07:10;;;;;;;58.58;31.75;;;;;;;8.57;64.76;98770.97;4743964;30;20084;-94
2024/01/03 10:09:55;;;;;;;59.15;32.55;;;;;;;8.61;64.83;98778.25;4741080;30;20459;-96
2024/01/03 10:15:51;;;;;;;56.05;31.17;;;;;;;8.70;64.91;98783.88;4765496;30;20039;-95
2024/01/03 10:18:31;;;;;;;53.92;33.42;;;;;;;8.46;65.86;98779.03;4736685;30;20055;-92
2024/01/03 10:21:16;;;;;;;53.15;33.72;;;;;;;8.47;65.29;98785.22;4758814;30;20077;-90
2024/01/03 10:23:45;;;;;;;59.72;34.60;;;;;;;8.35;65.09;98768.56;4776581;29;20048;-93
2024/01/03 10:26:11;;;;;;;57.75;37.03;;;;;;;8.38;65.36;98765.34;4822441;29;20037;-91
2024/01/03 10:29:33;;;;;;;57.03;35.85;;;;;;;8.34;65.70;98757.00;4829360;29;20466;-93
2024/01/03 10:32:09;;;;;;;75.63;42.35;;;;;;;8.52;65.76;98773.69;4841046;29;20609;-93
2024/01/03 10:34:42;;;;;;;71.43;41.42;;;;;;;8.57;66.17;98774.50;4821587;29;20105;-96
2024/01/03 10:37:37;;;;;;;86.90;46.90;;;;;;;8.68;66.54;98784.13;4798336;29;20043;-96
2024/01/03 10:40:23;;;;;;;91.93;49.47;;;;;;;8.79;67.04;98806.38;4804212;29;20126;-94
2024/01/03 10:43:28;;;;;;;100.05;49.08;;;;;;;8.85;67.40;98804.50;4811894;29;20061;-94
2024/01/03 10:45:57;;;;;;;88.68;45.45;;;;;;;8.89;67.19;98819.00;4766324;30;20052;-95
2024/01/03 10:56:00;;;;;;;90.80;47.53;;;;;;;8.38;68.58;98825.16;4785839;29;20073;-95
2024/01/03 10:58:37;;;;;;;82.97;44.15;;;;;;;8.40;68.35;98828.38;4844366;29;20049;-94
2024/01/03 11:01:38;;;;;;;82.43;41.83;;;;;;;8.27;68.13;98821.66;4830267;29;20057;-96
2024/01/03 11:46:08;;;;;;;74.78;38.35;;;;;;;8.12;70.71;98768.00;4373829;23;21389;-94
2024/01/03 11:48:34;;;;;;;72.72;37.10;;;;;;;8.29;70.56;98765.06;4811889;29;20053;-93
2024/01/03 11:51:13;;;;;;;71.75;36.70;;;;;;;8.40;70.94;98761.28;4830714;29;20529;-93
2024/01/03 11:53:39;;;;;;;68.35;39.42;;;;;;;8.51;71.29;98764.84;4833095;29;20042;-92
2024/01/03 11:56:13;;;;;;;64.47;39.55;;;;;;;8.56;70.92;98761.34;4829414;29;20041;-95
2024/01/03 11:58:38;;;;;;;61.95;37.20;;;;;;;8.70;72.07;98768.56;4833287;29;20095;-92
2024/01/03 12:01:15;;;;;;;63.08;38.00;;;;;;;8.67;72.00;98750.31;4819234;29;20060;-90
2024/01/03 12:04:51;;;;;;;68.30;37.97;;;;;;;8.87;72.57;98773.63;4825913;29;20108;-96
2024/01/03 12:07:16;;;;;;;58.97;35.03;;;;;;;8.74;72.93;98747.34;4787098;29;20133;-95
2024/01/03 12:09:43;;;;;;;59.50;35.80;;;;;;;8.83;73.05;98759.13;4801564;29;20073;-95
2024/01/03 12:12:35;;;;;;;62.10;35.72;;;;;;;8.88;72.90;98756.44;4825759;29;20426;-93
2024/01/03 12:15:28;;;;;;;55.13;34.80;;;;;;;8.94;73.21;98756.44;4825532;29;20510;-96
2024/01/03 12:18:05;;;;;;;;;;;;;;;9.08;73.24;98776.25;4843663;29;20600;-96
2024/01/03 12:20:38;;;;;;;52.92;31.35;;;;;;;9.07;72.41;98763.91;4836356;29;20390;-96
2024/01/03 12:23:18;;;;;;;50.67;30.02;;;;;;;9.05;72.60;98745.38;4802716;29;20145;-91
2024/01/03 12:25:49;;;;;;;60.45;37.38;;;;;;;8.97;73.85;98739.78;4827734;29;20040;-92
2024/01/03 12:28:19;;;;;;;75.25;41.65;;;;;;;8.88;74.03;98744.88;4829335;29;20053;-91
2024/01/03 12:30:45;;;;;;;73.60;43.28;;;;;;;8.92;74.30;98750.53;4823746;29;20041;-94
2024/01/03 12:33:25;;;;;;;68.75;43.88;;;;;;;8.92;73.42;98737.91;4820257;29;20110;-94
2024/01/03 12:36:00;;;;;;;63.33;40.65;;;;;;;8.96;73.75;98746.22;4830652;29;20041;-92
2024/01/03 12:38:32;;;;;;;59.78;37.58;;;;;;;9.00;74.16;98736.53;4821324;29;20185;-91
2024/01/03 12:41:03;;;;;;;64.95;39.03;;;;;;;9.00;74.46;98739.22;4832144;29;20046;-94
2024/01/03 12:43:46;;;;;;;64.47;38.60;;;;;;;8.92;74.50;98723.69;4817151;29;20037;-94
2024/01/03 12:56:18;;;;;;;61.00;40.97;;;;;;;9.11;75.23;98756.94;5044147;23;20084;-95
2024/01/03 13:02:20;;;;;;;63.85;40.03;;;;;;;8.97;75.25;98719.09;4869049;29;20125;-95
2024/01/03 13:05:10;;;;;;;62.30;39.33;;;;;;;9.05;74.61;98734.66;4857958;29;20048;-96
2024/01/03 13:07:45;;;;;;;53.08;36.85;;;;;;;8.99;74.99;98722.31;4849766;29;20065;-96
2024/01/03 13:10:12;;;;;;;66.57;43.47;;;;;;;9.11;74.13;98735.44;4844830;29;20416;-94
2024/01/03 13:12:51;;;;;;;72.03;46.00;;;;;;;9.15;74.26;98731.13;4844703;29;20044;-95
2024/01/03 13:15:34;;;;;;;74.40;48.75;;;;;;;9.23;74.19;98727.84;4852569;29;20030;-96
2024/01/03 13:18:00;;;;;;;69.32;41.10;;;;;;;9.34;73.95;98728.63;4828256;29;20087;-94
2024/01/03 13:20:51;;;;;;;55.45;34.85;;;;;;;9.39;73.74;98723.22;4818018;29;20522;-96
2024/01/03 13:23:17;;;;;;;47.03;30.55;;;;;;;9.43;73.47;98713.53;4834997;29;20046;-96
2024/01/03 13:29:07;;;;;;;51.45;31.52;;;;;;;9.52;73.61;98724.47;4849799;29;20049;-95
2024/01/03 13:31:33;;;;;;;45.50;28.13;;;;;;;9.55;73.69;98704.34;4818140;29;20050;-95
2024/01/03 13:34:17;;;;;;;;;;;;;;;;;;;;;
2024/01/03 13:37:09;;;;;;;31.80;20.92;;;;;;;9.76;73.10;98719.25;4819776;29;20121;-96
2024/01/03 13:39:48;;;;;;;71.88;41.28;;;;;;;9.64;73.50;98699.97;4817820;29;20096;-93
2024/01/03 13:42:20;;;;;;;38.22;28.23;;;;;;;9.72;73.32;98715.50;4830598;29;20489;-95
2024/01/03 13:44:51;;;;;;;49.60;31.63;;;;;;;9.79;73.55;98732.13;4819414;29;20041;-94
2024/01/03 13:50:38;;;;;;;67.30;40.42;;;;;;;9.82;73.64;98736.94;4831429;29;20090;-92
2024/01/03 13:53:13;;;;;;;70.80;46.75;;;;;;;9.67;74.14;98720.91;4807553;29;20072;-94
2024/01/03 13:55:41;;;;;;;75.88;50.65;;;;;;;9.67;74.42;98719.03;4801798;29;20497;-91
2024/01/03 13:58:13;;;;;;;77.97;47.88;;;;;;;9.63;73.83;98706.41;4800654;29;20491;-92
2024/01/03 14:00:45;;;;;;;67.57;44.85;;;;;;;9.71;73.44;98713.88;4801438;29;20042;-92
2024/01/03 14:03:11;;;;;;;62.08;41.33;;;;;;;9.70;73.49;98709.59;4801751;29;20397;-91
2024/01/03 14:05:39;;;;;;;69.97;43.20;;;;;;;9.62;74.30;98700.25;4799853;29;20153;-93
2024/01/03 14:08:15;;;;;;;55.85;39.83;;;;;;;9.69;74.24;98702.59;4817984;29;20077;-95
2024/01/03 14:10:44;;;;;;;69.40;44.47;;;;;;;9.82;74.40;98717.34;4819843;29;20090;-94
2024/01/03 14:13:11;;;;;;;67.18;42.58;;;;;;;9.77;74.02;98690.47;4802895;29;20073;-94
2024/01/03 14:15:37;;;;;;;62.92;40.50;;;;;;;9.79;74.10;98694.47;4801677;29;20034;-92
2024/01/03 14:18:06;;;;;;;59.22;39.03;;;;;;;9.73;74.01;98681.34;4799967;29;20106;-90
2024/01/03 14:20:32;;;;;;;43.95;28.38;;;;;;;9.88;74.24;98697.41;4800259;29;20088;-94
2024/01/03 14:22:57;;;;;;;41.10;27.42;;;;;;;9.79;74.55;98677.56;4806740;29;20029;-93
2024/01/03 14:25:25;;;;;;;37.88;25.85;;;;;;;9.82;74.32;98677.81;4814331;29;20046;-90
2024/01/03 14:27:52;;;;;;;28.73;19.42;;;;;;;9.88;74.97;98676.69;4803687;29;20420;-91
2024/01/03 14:30:23;;;;;;;28.35;16.90;;;;;;;9.89;73.95;98674.78;4794671;29;20053;-93
2024/01/03 14:32:52;;;;;;;27.92;16.85;;;;;;;9.99;74.09;98665.84;4823685;29;20049;-94
2024/01/03 14:35:21;;;;;;;52.40;36.80;;;;;;;9.99;74.07;98671.22;4817836;29;20037;-93
2024/01/03 14:37:49;;;;;;;69.10;44.80;;;;;;;9.95;73.52;98675.56;4805632;29;20042;-94